Time;durP1;ratioP1;P1;durP2;ratioP2;P2;SDS_P1;SDS_P2;PMS_P1;PMS_P2;Temp;Humidity;BMP_temperature;BMP_pressure;BME280_temperature;BME280_humidity;BME280_pressure;Samples;Min_cycle;Max_cycle;Signal;HPM_P1;HPM_P2
2023/11/24 00:00:29;;;;;;;30.45;13.88;;;;;;;8.24;100.00;99424.09;5132277;27;20024;-36
2023/11/24 00:02:54;;;;;;;31.13;14.00;;;;;;;8.17;100.00;99416.13;5132163;27;20390;-39
2023/11/24 00:05:21;;;;;;;30.25;14.02;;;;;;;8.16;100.00;99419.78;5132011;27;20029;-38
2023/11/24 00:07:47;;;;;;;30.10;13.15;;;;;;;8.35;99.30;99412.94;5132458;27;20118;-36
2023/11/24 00:10:13;;;;;;;30.70;13.52;;;;;;;8.23;97.98;99412.69;5132790;27;20098;-38
2023/11/24 00:12:39;;;;;;;34.17;14.68;;;;;;;8.08;98.89;99406.69;5132704;27;20102;-39
2023/11/24 00:15:05;;;;;;;31.58;14.02;;;;;;;8.20;100.00;99399.00;5132670;27;20034;-38
2023/11/24 00:17:31;;;;;;;33.80;14.32;;;;;;;8.18;100.00;99385.94;5132602;27;20084;-39
2023/11/24 00:19:57;;;;;;;32.53;14.05;;;;;;;8.23;99.43;99388.00;5132417;27;20115;-42
2023/11/24 00:22:23;;;;;;;31.05;13.48;;;;;;;8.13;99.20;99385.72;5132318;27;20034;-39
2023/11/24 00:24:51;;;;;;;29.33;13.45;;;;;;;8.06;100.00;99387.53;5132864;27;20023;-39
2023/11/24 00:27:18;;;;;;;27.58;12.68;;;;;;;8.01;100.00;99390.78;5132406;27;20038;-37
2023/11/24 00:29:44;;;;;;;31.35;14.25;;;;;;;8.08;100.00;99382.84;5132034;27;20027;-39
2023/11/24 00:32:09;;;;;;;40.38;14.90;;;;;;;8.21;100.00;99380.25;5132011;27;20087;-35
2023/11/24 00:34:38;;;;;;;33.15;13.05;;;;;;;8.06;99.79;99376.09;5131936;27;20023;-39
2023/11/24 00:37:05;;;;;;;32.83;14.48;;;;;;;8.11;100.00;99368.38;5132460;27;20026;-39
2023/11/24 00:39:32;;;;;;;36.25;13.43;;;;;;;8.10;100.00;99362.25;5132127;27;20027;-39
2023/11/24 00:41:59;;;;;;;33.03;14.10;;;;;;;8.11;100.00;99355.13;5132339;27;20031;-38
2023/11/24 00:44:25;;;;;;;31.73;13.25;;;;;;;8.01;100.00;99347.53;5131969;27;20486;-37
2023/11/24 00:46:50;;;;;;;29.30;12.75;;;;;;;7.91;100.00;99352.38;5131618;27;20019;-37
2023/11/24 00:49:17;;;;;;;29.17;13.48;;;;;;;7.91;100.00;99349.72;5132366;27;20019;-38
2023/11/24 00:51:43;;;;;;;33.40;13.10;;;;;;;7.95;100.00;99345.66;5132306;27;20023;-36
2023/11/24 00:54:09;;;;;;;32.35;14.10;;;;;;;8.03;100.00;99345.50;5131506;27;20071;-39
2023/11/24 00:56:35;;;;;;;31.92;13.50;;;;;;;7.83;100.00;99321.56;5132065;27;20103;-39
2023/11/24 00:59:01;;;;;;;38.28;14.05;;;;;;;7.99;100.00;99328.34;5131948;27;20308;-39
2023/11/24 01:01:26;;;;;;;28.58;12.93;;;;;;;8.08;100.00;99316.59;5131847;27;20114;-37
2023/11/24 01:03:52;;;;;;;30.30;13.52;;;;;;;8.09;100.00;99301.50;5131978;27;20050;-37
2023/11/24 01:06:17;;;;;;;27.17;12.55;;;;;;;7.91;100.00;99316.09;5132242;27;20477;-39
2023/11/24 01:08:43;;;;;;;31.52;13.45;;;;;;;8.02;100.00;99302.28;5131104;27;20487;-38
2023/11/24 01:11:08;;;;;;;38.45;13.40;;;;;;;7.95;99.95;99303.28;5131918;28;20027;-39
2023/11/24 01:13:36;;;;;;;33.13;13.60;;;;;;;7.90;100.00;99303.03;5131955;28;20019;-39
2023/11/24 01:16:03;;;;;;;30.83;13.00;;;;;;;7.84;99.92;99291.38;5131890;27;20025;-36
2023/11/24 01:18:29;;;;;;;49.90;13.60;;;;;;;7.95;100.00;99292.69;5132224;28;20121;-39
2023/11/24 01:20:55;;;;;;;27.25;12.77;;;;;;;7.87;100.00;99285.72;5132061;28;20447;-37
2023/11/24 01:23:20;;;;;;;31.05;12.70;;;;;;;7.82;100.00;99273.06;5131842;28;20019;-39
2023/11/24 01:25:46;;;;;;;28.05;12.13;;;;;;;7.82;99.70;99270.41;5131785;27;20106;-36
2023/11/24 01:28:13;;;;;;;30.40;12.32;;;;;;;7.84;100.00;99262.25;5132036;27;20037;-38
2023/11/24 01:30:39;;;;;;;22.38;10.52;;;;;;;7.72;100.00;99261.19;5131600;28;20030;-39
2023/11/24 01:33:04;;;;;;;25.77;11.23;;;;;;;7.78;100.00;99252.44;5132151;28;20015;-39
2023/11/24 01:35:30;;;;;;;24.73;11.10;;;;;;;7.90;100.00;99247.41;5131900;28;20023;-39
2023/11/24 01:37:57;;;;;;;27.35;12.38;;;;;;;7.80;100.00;99229.22;5131748;28;20470;-39
2023/11/24 01:40:22;;;;;;;28.48;12.15;;;;;;;7.83;100.00;99231.50;5131652;28;20023;-38
2023/11/24 01:42:48;;;;;;;29.38;12.45;;;;;;;7.73;100.00;99215.97;5131574;27;20035;-39
2023/11/24 01:45:14;;;;;;;26.20;12.07;;;;;;;7.69;100.00;99216.56;5131566;28;20557;-36
2023/11/24 01:47:40;;;;;;;25.98;11.55;;;;;;;7.79;100.00;99215.19;5131428;28;20163;-39
2023/11/24 01:50:07;;;;;;;33.33;13.55;;;;;;;7.52;100.00;99203.66;5131367;28;20034;-39
2023/11/24 01:52:34;;;;;;;32.20;13.10;;;;;;;7.70;100.00;99199.66;5131285;28;20116;-36
2023/11/24 01:55:01;;;;;;;32.40;13.55;;;;;;;7.76;100.00;99191.72;5131279;28;20047;-37
2023/11/24 01:57:27;;;;;;;30.98;12.18;;;;;;;7.72;100.00;99189.69;5131320;28;20074;-39
2023/11/24 01:59:53;;;;;;;26.25;12.00;;;;;;;7.89;100.00;99192.78;5131209;27;20027;-36
2023/11/24 02:02:21;;;;;;;26.42;12.55;;;;;;;7.68;100.00;99199.84;5131193;28;20015;-39
2023/11/24 02:04:47;;;;;;;34.78;12.65;;;;;;;7.66;100.00;99196.59;5131220;28;20027;-36
2023/11/24 02:07:12;;;;;;;30.50;13.23;;;;;;;7.68;100.00;99196.38;5131276;27;20021;-39
2023/11/24 02:09:39;;;;;;;29.70;12.15;;;;;;;7.85;100.00;99196.88;5130580;27;20058;-38
2023/11/24 02:12:04;;;;;;;29.40;12.35;;;;;;;7.91;100.00;99186.28;5131226;28;20055;-38
2023/11/24 02:14:30;;;;;;;26.80;11.38;;;;;;;7.66;100.00;99179.88;5131455;27;20051;-39
2023/11/24 02:16:56;;;;;;;27.38;12.48;;;;;;;7.78;100.00;99179.09;5131354;28;20524;-39
2023/11/24 02:19:21;;;;;;;24.75;11.60;;;;;;;7.81;100.00;99162.00;5131515;28;20076;-39
2023/11/24 02:21:47;;;;;;;39.63;13.27;;;;;;;7.60;100.00;99155.00;5132734;27;20143;-37
2023/11/24 02:24:13;;;;;;;28.88;11.38;;;;;;;7.68;100.00;99159.31;5135062;27;20359;-38
2023/11/24 02:26:39;;;;;;;27.58;12.10;;;;;;;7.68;100.00;99157.47;5134148;27;20016;-38
2023/11/24 02:29:04;;;;;;;29.13;12.35;;;;;;;7.77;100.00;99160.78;5134569;27;20110;-39
2023/11/24 02:31:32;;;;;;;32.03;12.30;;;;;;;7.77;100.00;99143.03;5120305;27;20027;-38
2023/11/24 02:33:58;;;;;;;29.88;11.63;;;;;;;7.81;100.00;99144.25;5114078;28;20498;-38
2023/11/24 02:36:27;;;;;;;26.70;11.80;;;;;;;7.77;100.00;99145.69;5120210;27;20027;-39
2023/11/24 02:38:53;;;;;;;26.40;12.20;;;;;;;7.80;100.00;99132.03;5122423;27;20546;-37
2023/11/24 02:41:22;;;;;;;27.95;12.18;;;;;;;7.86;100.00;99130.41;5132321;27;20027;-36
2023/11/24 02:43:48;;;;;;;26.47;10.97;;;;;;;7.76;100.00;99124.69;5134629;27;20038;-39
2023/11/24 02:46:15;;;;;;;23.25;10.55;;;;;;;7.65;100.00;99112.84;5115893;27;20031;-39
2023/11/24 02:48:42;;;;;;;22.48;11.00;;;;;;;7.57;100.00;99115.69;5134654;27;20019;-36
2023/11/24 02:51:07;;;;;;;26.90;10.95;;;;;;;7.51;100.00;99109.34;5134191;27;20399;-36
2023/11/24 02:53:35;;;;;;;25.77;11.98;;;;;;;7.63;100.00;99110.41;5134168;27;20066;-39
2023/11/24 02:56:10;;;;;;;24.77;11.52;;;;;;;7.77;99.87;99110.44;5133449;27;20027;-39
2023/11/24 02:58:36;;;;;;;23.88;10.88;;;;;;;7.68;100.00;99096.56;5134079;27;20026;-38
2023/11/24 03:01:02;;;;;;;22.63;10.18;;;;;;;7.73;100.00;99099.44;5134034;27;20027;-36
2023/11/24 03:03:30;;;;;;;22.63;10.43;;;;;;;7.60;99.81;99083.50;5133578;27;20029;-39
2023/11/24 03:05:56;;;;;;;22.00;11.15;;;;;;;7.48;100.00;99085.09;5133808;27;20031;-39
2023/11/24 03:08:23;;;;;;;25.35;10.18;;;;;;;7.35;100.00;99067.31;5134323;27;20066;-36
2023/11/24 03:10:49;;;;;;;28.38;10.82;;;;;;;7.78;100.00;99070.50;5134325;27;20099;-39
2023/11/24 03:13:14;;;;;;;37.83;11.32;;;;;;;7.64;99.35;99074.94;5133904;27;20114;-38
2023/11/24 03:15:40;;;;;;;25.33;10.88;;;;;;;7.60;98.92;99067.63;5134399;27;20133;-27
2023/11/24 03:18:09;;;;;;;24.80;11.02;;;;;;;7.53;99.79;99066.78;5133750;27;20031;-26
2023/11/24 03:20:36;;;;;;;26.90;11.50;;;;;;;7.51;100.00;99059.03;5133936;27;20015;-26
2023/11/24 03:23:02;;;;;;;24.00;10.65;;;;;;;7.48;100.00;99059.44;5133649;27;20471;-26
2023/11/24 03:25:29;;;;;;;21.55;10.40;;;;;;;7.43;100.00;99051.28;5133650;27;20079;-25
2023/11/24 03:27:54;;;;;;;26.67;10.48;;;;;;;7.46;100.00;99042.94;5133664;27;20362;-26
2023/11/24 03:30:20;;;;;;;26.63;11.70;;;;;;;7.44;99.82;99047.59;5133535;27;20102;-26
2023/11/24 03:32:45;;;;;;;24.02;10.77;;;;;;;7.39;100.00;99037.63;5133418;27;20130;-25
2023/11/24 03:35:10;;;;;;;25.88;11.07;;;;;;;7.20;100.00;99019.88;5133728;27;20096;-25
2023/11/24 03:37:37;;;;;;;25.42;11.25;;;;;;;7.21;100.00;99022.28;5133378;27;20097;-26
2023/11/24 03:40:03;;;;;;;24.38;11.45;;;;;;;7.21;100.00;99021.47;5125603;27;20028;-25
2023/11/24 03:42:28;;;;;;;23.35;10.40;;;;;;;7.15;100.00;99020.44;5112877;28;20020;-25
2023/11/24 03:44:54;;;;;;;24.63;10.98;;;;;;;7.29;99.91;99021.31;5112963;28;20023;-25
2023/11/24 03:47:19;;;;;;;27.55;11.30;;;;;;;7.10;100.00;99009.66;5112416;28;20027;-25
2023/11/24 03:49:45;;;;;;;24.83;11.05;;;;;;;7.05;100.00;99010.25;5112511;28;20103;-25
2023/11/24 03:52:10;;;;;;;34.08;11.82;;;;;;;7.00;100.00;99010.00;5112613;28;20092;-25
2023/11/24 03:54:36;;;;;;;26.40;11.15;;;;;;;7.13;100.00;99011.09;5117696;27;20050;-25
2023/11/24 03:57:01;;;;;;;26.25;11.40;;;;;;;7.21;99.76;99010.91;5133521;27;20019;-26
2023/11/24 03:59:27;;;;;;;27.38;12.38;;;;;;;7.31;100.00;98999.94;5133295;27;20076;-26
2023/11/24 04:01:52;;;;;;;27.60;12.25;;;;;;;7.09;100.00;99002.72;5127169;27;20485;-26
2023/11/24 04:04:18;;;;;;;25.23;11.50;;;;;;;6.92;100.00;98993.53;5141026;27;20054;-25
2023/11/24 04:06:43;;;;;;;32.95;11.18;;;;;;;7.01;100.00;98997.63;5140887;27;20023;-26
2023/11/24 04:09:10;;;;;;;48.50;12.90;;;;;;;7.50;100.00;98998.34;5141148;27;20019;-25
2023/11/24 04:11:36;;;;;;;32.00;11.93;;;;;;;7.41;100.00;98990.59;5141050;27;20031;-25
2023/11/24 04:14:01;;;;;;;43.03;12.13;;;;;;;7.26;100.00;98987.31;5129873;27;20018;-25
2023/11/24 04:16:29;;;;;;;26.60;11.68;;;;;;;7.12;99.60;98969.75;5132576;27;20064;-26
2023/11/24 04:18:55;;;;;;;28.33;11.63;;;;;;;7.03;100.00;98967.31;5132424;27;20072;-26
2023/11/24 04:21:20;;;;;;;24.88;12.38;;;;;;;6.90;100.00;98977.84;5132055;27;20023;-24
2023/11/24 04:23:45;;;;;;;27.50;12.52;;;;;;;6.89;100.00;98970.91;5132618;27;20035;-25
2023/11/24 04:26:11;;;;;;;24.23;11.52;;;;;;;6.88;100.00;98987.00;5131887;27;20492;-26
2023/11/24 04:28:36;;;;;;;27.65;11.77;;;;;;;6.97;100.00;98981.34;5131705;27;20102;-26
2023/11/24 04:31:02;;;;;;;31.20;13.85;;;;;;;6.93;100.00;98977.47;5132056;27;20015;-26
2023/11/24 04:33:27;;;;;;;33.70;15.32;;;;;;;6.95;100.00;98978.06;5132297;27;20019;-25
2023/11/24 04:35:55;;;;;;;32.15;14.02;;;;;;;6.86;100.00;98976.59;5131940;27;20019;-25
2023/11/24 04:38:21;;;;;;;35.70;13.98;;;;;;;6.86;100.00;98966.03;5131478;27;20015;-25
2023/11/24 04:40:46;;;;;;;38.20;14.43;;;;;;;7.00;100.00;98991.50;5132024;27;20211;-25
2023/11/24 04:43:12;;;;;;;43.08;13.75;;;;;;;7.02;100.00;99002.69;5122598;27;20072;-26
2023/11/24 04:45:39;;;;;;;28.55;12.35;;;;;;;6.96;100.00;99002.69;5125997;27;20015;-26
2023/11/24 04:48:06;;;;;;;54.75;12.60;;;;;;;7.16;100.00;99005.38;5125494;27;20038;-25
2023/11/24 04:50:31;;;;;;;60.60;11.70;;;;;;;7.24;100.00;98994.63;5121082;27;20023;-25
2023/11/24 04:52:56;;;;;;;39.22;11.85;;;;;;;7.36;100.00;99003.59;5135959;27;20039;-25
2023/11/24 04:55:22;;;;;;;29.05;12.65;;;;;;;7.08;100.00;98984.41;5130816;27;20074;-26
2023/11/24 04:57:50;;;;;;;30.33;13.52;;;;;;;7.09;100.00;98994.78;5131680;27;20022;-26
2023/11/24 05:00:18;;;;;;;55.55;12.45;;;;;;;7.42;100.00;98975.50;5131216;27;20023;-25
2023/11/24 05:02:43;;;;;;;28.92;12.07;;;;;;;7.30;100.00;98988.53;5131652;27;20498;-26
2023/11/24 05:05:09;;;;;;;51.88;13.20;;;;;;;7.65;100.00;98985.72;5131667;27;20023;-27
2023/11/24 05:07:34;;;;;;;48.05;13.35;;;;;;;7.61;100.00;98982.66;5131064;27;20072;-27
2023/11/24 05:10:00;;;;;;;27.17;11.90;;;;;;;7.07;100.00;98980.94;5129984;27;20031;-26
2023/11/24 05:12:25;;;;;;;46.17;12.73;;;;;;;6.93;100.00;98951.00;5129993;28;20054;-26
2023/11/24 05:14:51;;;;;;;48.13;12.93;;;;;;;7.23;100.00;98970.00;5130033;28;20019;-26
2023/11/24 05:17:17;;;;;;;49.78;14.05;;;;;;;7.36;100.00;98966.56;5129871;28;20100;-26
2023/11/24 05:19:42;;;;;;;38.78;12.57;;;;;;;7.25;100.00;98959.19;5129744;28;20479;-26
2023/11/24 05:22:07;;;;;;;29.60;12.38;;;;;;;6.93;100.00;98951.00;5130127;28;20507;-25
2023/11/24 05:24:33;;;;;;;29.23;12.10;;;;;;;6.90;100.00;98956.69;5131458;28;20019;-27
2023/11/24 05:26:58;;;;;;;30.50;13.57;;;;;;;7.03;100.00;98947.97;5131686;28;20015;-26
2023/11/24 05:29:24;;;;;;;27.10;13.02;;;;;;;6.92;100.00;98953.84;5131655;28;20452;-27
2023/11/24 05:31:50;;;;;;;29.23;13.23;;;;;;;7.02;100.00;98968.31;5131486;28;20027;-27
2023/11/24 05:34:15;;;;;;;34.58;11.73;;;;;;;7.72;100.00;98954.75;5131567;27;20023;-26
2023/11/24 05:36:44;;;;;;;30.52;10.98;;;;;;;7.80;100.00;98945.78;5131349;28;20042;-27
2023/11/24 05:39:11;;;;;;;26.37;12.00;;;;;;;7.64;99.79;98953.13;5131561;28;20034;-27
2023/11/24 05:41:37;;;;;;;28.52;11.82;;;;;;;7.39;100.00;98946.81;5131322;28;20324;-27
2023/11/24 05:44:03;;;;;;;28.60;11.63;;;;;;;7.33;100.00;98944.97;5131428;28;20027;-27
2023/11/24 05:46:29;;;;;;;33.83;13.27;;;;;;;7.47;100.00;98946.63;5131348;28;20015;-27
2023/11/24 05:48:54;;;;;;;29.65;11.77;;;;;;;7.33;100.00;98937.03;5131112;28;20034;-27
2023/11/24 05:51:19;;;;;;;38.38;11.35;;;;;;;7.24;100.00;98933.75;5131625;27;20022;-26
2023/11/24 05:53:45;;;;;;;26.63;10.77;;;;;;;7.31;100.00;98933.75;5130886;28;20058;-27
2023/11/24 05:56:10;;;;;;;21.80;10.70;;;;;;;7.19;99.88;98930.91;5133832;27;20475;-27
2023/11/24 05:58:36;;;;;;;37.10;10.95;;;;;;;7.41;100.00;98921.78;5135628;27;20493;-27
2023/11/24 06:01:01;;;;;;;43.92;11.35;;;;;;;7.79;98.15;98920.34;5135386;27;20162;-26
2023/11/24 06:03:27;;;;;;;55.58;11.43;;;;;;;7.75;97.12;98919.94;5135352;27;20039;-27
2023/11/24 06:05:55;;;;;;;23.00;10.93;;;;;;;7.42;98.16;98923.41;5135609;27;20051;-27
2023/11/24 06:08:21;;;;;;;34.72;12.38;;;;;;;7.29;99.52;98909.34;5135437;27;20478;-27
2023/11/24 06:10:50;;;;;;;27.88;11.43;;;;;;;7.50;97.86;98918.91;5135469;27;20023;-27
2023/11/24 06:13:15;;;;;;;48.08;13.35;;;;;;;7.29;99.74;98920.75;5135710;27;20020;-27
2023/11/24 06:15:41;;;;;;;26.38;12.23;;;;;;;7.02;99.67;98933.91;5135346;27;20406;-27
2023/11/24 06:18:07;;;;;;;45.75;12.88;;;;;;;7.20;100.00;98927.25;5135255;27;20038;-26
2023/11/24 06:20:32;;;;;;;33.72;13.18;;;;;;;7.14;99.64;98928.88;5135652;27;20095;-26
2023/11/24 06:22:57;;;;;;;29.00;13.40;;;;;;;7.09;100.00;98933.13;5135207;27;20080;-26
2023/11/24 06:25:23;;;;;;;32.58;14.55;;;;;;;7.07;100.00;98914.81;5135098;27;20553;-26
2023/11/24 06:27:48;;;;;;;40.03;15.23;;;;;;;7.12;100.00;98916.84;5135049;27;20031;-26
2023/11/24 06:30:14;;;;;;;34.28;15.95;;;;;;;7.37;100.00;98925.03;5135094;27;20050;-27
2023/11/24 06:32:39;;;;;;;39.65;16.30;;;;;;;7.32;100.00;98917.69;5134481;27;20180;-27
2023/11/24 06:35:10;;;;;;;37.45;15.30;;;;;;;7.50;99.57;98917.09;5135186;27;20019;-28
2023/11/24 06:37:36;;;;;;;32.58;15.98;;;;;;;7.42;100.00;98911.97;5134536;27;20475;-27
2023/11/24 06:40:05;;;;;;;36.40;15.77;;;;;;;7.51;100.00;98917.91;5134550;27;20030;-26
2023/11/24 06:42:30;;;;;;;35.03;16.90;;;;;;;7.42;100.00;98915.47;5134693;27;20451;-27
2023/11/24 06:44:56;;;;;;;33.60;15.05;;;;;;;7.51;100.00;98915.25;5134879;27;20069;-29
2023/11/24 06:47:23;;;;;;;36.10;14.95;;;;;;;7.73;100.00;98897.31;5134782;27;20020;-27
2023/11/24 06:49:50;;;;;;;35.35;15.23;;;;;;;7.54;100.00;98897.13;5134540;27;20027;-28
2023/11/24 06:52:15;;;;;;;35.50;15.57;;;;;;;7.66;100.00;98894.69;5134992;27;20019;-28
2023/11/24 06:54:41;;;;;;;36.38;15.57;;;;;;;7.56;99.58;98900.41;5134384;27;20049;-28
2023/11/24 06:57:06;;;;;;;38.13;16.73;;;;;;;7.52;100.00;98893.88;5134585;27;20110;-27
2023/11/24 06:59:32;;;;;;;46.47;16.60;;;;;;;7.50;99.61;98893.28;5134494;27;20038;-27
2023/11/24 07:01:57;;;;;;;33.20;15.63;;;;;;;7.55;98.69;98896.09;5134364;27;20513;-27
2023/11/24 07:04:23;;;;;;;32.97;15.23;;;;;;;7.71;99.73;98897.53;5134298;27;20024;-27
2023/11/24 07:06:49;;;;;;;44.25;17.75;;;;;;;7.50;100.00;98887.97;5133414;27;20456;-27
2023/11/24 07:09:14;;;;;;;52.40;17.27;;;;;;;7.45;100.00;98901.00;5134183;27;20498;-25
2023/11/24 07:11:41;;;;;;;48.53;17.08;;;;;;;7.40;99.87;98885.72;5134030;27;20021;-27
2023/11/24 07:14:07;;;;;;;66.35;18.00;;;;;;;7.50;99.48;98880.03;5134196;27;20030;-28
2023/11/24 07:16:32;;;;;;;42.45;17.35;;;;;;;7.49;99.71;98869.66;5134054;27;20011;-27
2023/11/24 07:18:58;;;;;;;41.28;17.38;;;;;;;7.35;99.58;98869.66;5134673;27;20050;-27
2023/11/24 07:21:23;;;;;;;43.40;18.20;;;;;;;7.44;100.00;98863.13;5134244;27;20054;-27
2023/11/24 07:23:49;;;;;;;41.97;19.02;;;;;;;7.64;100.00;98873.69;5133849;27;20042;-28
2023/11/24 07:26:18;;;;;;;47.67;20.95;;;;;;;7.60;100.00;98861.09;5133948;27;20016;-27
2023/11/24 07:28:44;;;;;;;46.93;20.47;;;;;;;7.67;100.00;98850.47;5133938;27;20019;-28
2023/11/24 07:31:17;;;;;;;49.58;20.15;;;;;;;7.76;100.00;98860.63;5133730;27;20310;-27
2023/11/24 07:33:43;;;;;;;46.10;18.38;;;;;;;7.74;100.00;98849.44;5134105;27;20454;-26
2023/11/24 07:36:12;;;;;;;44.08;18.88;;;;;;;7.86;99.96;98841.66;5133886;27;20518;-28
2023/11/24 07:38:37;;;;;;;55.73;18.87;;;;;;;7.77;100.00;98845.56;5133535;27;20122;-28
2023/11/24 07:41:04;;;;;;;43.05;18.10;;;;;;;7.85;99.62;98842.69;5133554;27;20847;-28
2023/11/24 07:43:31;;;;;;;43.70;18.50;;;;;;;8.01;99.38;98834.31;5133476;27;20034;-27
2023/11/24 07:45:57;;;;;;;42.00;18.10;;;;;;;7.87;99.56;98839.84;5133383;27;20046;-27
2023/11/24 07:48:23;;;;;;;46.60;19.55;;;;;;;7.97;100.00;98838.38;5133272;27;20046;-27
2023/11/24 07:50:49;;;;;;;46.75;19.73;;;;;;;8.13;99.81;98845.06;5133361;27;20500;-27
2023/11/24 07:53:14;;;;;;;45.08;18.90;;;;;;;7.98;98.36;98836.56;5133270;27;20391;-26
2023/11/24 07:55:40;;;;;;;47.00;20.60;;;;;;;8.21;96.66;98836.88;5132808;27;20047;-27
2023/11/24 07:58:06;;;;;;;42.45;19.70;;;;;;;8.11;97.02;98830.38;5133631;27;20540;-29
2023/11/24 08:00:32;;;;;;;42.30;19.17;;;;;;;8.03;98.01;98831.44;5133155;27;20027;-27
2023/11/24 08:02:57;;;;;;;41.95;19.63;;;;;;;7.91;98.43;98818.00;5133749;27;20023;-29
2023/11/24 08:05:23;;;;;;;47.35;20.75;;;;;;;7.97;98.25;98817.19;5133349;27;20019;-27
2023/11/24 08:07:48;;;;;;;62.83;21.17;;;;;;;7.85;99.58;98805.63;5133269;27;20513;-29
2023/11/24 08:10:14;;;;;;;48.72;21.20;;;;;;;8.07;98.75;98813.28;5133136;27;20023;-27
2023/11/24 08:12:40;;;;;;;49.33;20.80;;;;;;;8.12;97.48;98826.72;5133407;27;20019;-28
2023/11/24 08:15:06;;;;;;;69.32;21.73;;;;;;;7.99;98.89;98817.78;5133274;27;20091;-28
2023/11/24 08:17:31;;;;;;;51.60;20.08;;;;;;;8.32;98.50;98816.00;5132892;27;20020;-27
2023/11/24 08:19:56;;;;;;;45.50;20.90;;;;;;;8.27;97.93;98810.56;5133028;27;20106;-27
2023/11/24 08:22:22;;;;;;;45.63;20.30;;;;;;;8.01;97.59;98791.91;5132858;27;20047;-27
2023/11/24 08:24:47;;;;;;;54.88;20.42;;;;;;;8.50;96.16;98796.81;5132842;27;20094;-27
2023/11/24 08:27:13;;;;;;;54.40;22.15;;;;;;;8.22;99.02;98796.09;5132590;27;20023;-27
2023/11/24 08:29:38;;;;;;;55.58;21.05;;;;;;;8.60;97.68;98782.06;5132536;27;20106;-27
2023/11/24 08:32:04;;;;;;;61.38;22.50;;;;;;;8.51;96.70;98775.38;5132592;27;20429;-27
2023/11/24 08:34:29;;;;;;;52.15;21.60;;;;;;;8.53;96.42;98777.78;5132407;27;20031;-27
2023/11/24 08:36:55;;;;;;;52.42;22.50;;;;;;;8.29;97.98;98782.81;5132477;27;20027;-27
2023/11/24 08:39:21;;;;;;;48.15;19.98;;;;;;;8.57;98.49;98777.16;5114038;27;20063;-27
2023/11/24 08:41:49;;;;;;;48.97;19.45;;;;;;;8.46;97.55;98777.84;5132120;27;20051;-29
2023/11/24 08:44:15;;;;;;;46.47;19.90;;;;;;;8.49;98.02;98764.19;5132498;27;20158;-28
2023/11/24 08:46:42;;;;;;;45.97;19.52;;;;;;;8.77;96.28;98771.72;5132220;27;20035;-26
2023/11/24 08:49:08;;;;;;;38.90;18.75;;;;;;;8.46;97.62;98753.97;5132771;27;20058;-28
2023/11/24 08:51:35;;;;;;;44.15;18.08;;;;;;;8.77;96.89;98750.50;5132601;27;20043;-27
2023/11/24 08:54:00;;;;;;;36.88;17.30;;;;;;;8.83;95.19;98738.22;5132268;27;20039;-27
2023/11/24 08:56:28;;;;;;;44.92;17.52;;;;;;;8.50;96.30;98727.84;5132013;27;20071;-28
2023/11/24 08:58:54;;;;;;;46.58;17.83;;;;;;;8.43;98.06;98721.78;5132446;27;20054;-27
2023/11/24 09:01:20;;;;;;;35.75;15.90;;;;;;;8.51;97.12;98718.88;5132061;27;20019;-26
2023/11/24 09:03:45;;;;;;;37.58;16.25;;;;;;;8.40;97.18;98721.16;5132234;27;20054;-28
2023/11/24 09:06:11;;;;;;;35.25;16.63;;;;;;;8.60;96.70;98721.06;5131912;27;20486;-27
2023/11/24 09:08:37;;;;;;;35.10;16.05;;;;;;;8.66;96.73;98707.94;5132083;28;20689;-27
2023/11/24 09:11:04;;;;;;;32.30;15.38;;;;;;;8.59;96.35;98706.16;5131831;28;20027;-27
2023/11/24 09:13:29;;;;;;;34.90;16.35;;;;;;;8.85;95.57;98708.81;5132124;28;20101;-28
2023/11/24 09:15:54;;;;;;;32.47;16.67;;;;;;;8.76;95.90;98703.78;5132126;27;20402;-27
2023/11/24 09:18:21;;;;;;;36.30;17.60;;;;;;;8.77;95.09;98696.63;5132153;28;20023;-27
2023/11/24 09:20:47;;;;;;;38.03;17.58;;;;;;;8.87;96.40;98690.84;5131928;28;20031;-28
2023/11/24 09:23:12;;;;;;;35.78;16.75;;;;;;;9.23;95.54;98686.63;5131907;28;20060;-27
2023/11/24 09:25:37;;;;;;;45.15;19.95;;;;;;;9.60;93.69;98684.78;5131730;28;20036;-28
2023/11/24 09:28:04;;;;;;;43.25;19.63;;;;;;;9.73;90.52;98671.34;5132380;28;20058;-28
2023/11/24 09:30:30;;;;;;;37.50;18.35;;;;;;;9.43;92.16;98665.16;5133906;27;20023;-28
2023/11/24 09:32:55;;;;;;;40.35;18.95;;;;;;;9.26;93.40;98652.47;5135778;27;20038;-27
2023/11/24 09:35:25;;;;;;;39.60;18.30;;;;;;;9.32;94.08;98656.91;5136171;27;20045;-29
2023/11/24 09:37:52;;;;;;;39.15;18.45;;;;;;;9.47;92.08;98647.75;5136234;27;20107;-29
2023/11/24 09:40:22;;;;;;;34.20;16.25;;;;;;;9.61;92.23;98649.19;5136083;27;20136;-29
2023/11/24 09:42:50;;;;;;;33.92;16.63;;;;;;;9.65;91.01;98645.06;5135887;27;20107;-27
2023/11/24 09:45:17;;;;;;;32.45;16.10;;;;;;;9.50;91.08;98641.97;5136120;27;20471;-28
2023/11/24 09:47:48;;;;;;;37.00;17.05;;;;;;;9.52;92.26;98646.06;5135951;27;20029;-27
2023/11/24 09:50:15;;;;;;;31.38;16.00;;;;;;;9.71;90.12;98646.84;5136195;27;20108;-29
2023/11/24 09:52:45;;;;;;;32.58;15.63;;;;;;;9.47;91.58;98631.81;5135402;27;20041;-28
2023/11/24 09:55:11;;;;;;;31.38;15.43;;;;;;;9.63;90.93;98612.59;5135492;27;20050;-32
2023/11/24 09:57:39;;;;;;;31.88;16.55;;;;;;;9.78;90.13;98612.19;5135819;27;20072;-28
2023/11/24 10:00:08;;;;;;;31.05;16.10;;;;;;;9.79;91.63;98603.19;5135648;27;20546;-28
2023/11/24 10:02:36;;;;;;;30.52;16.58;;;;;;;10.15;88.24;98593.47;5136183;27;20019;-27
2023/11/24 10:05:03;;;;;;;31.77;15.55;;;;;;;10.42;86.39;98603.72;5135183;27;20038;-27
2023/11/24 10:07:29;;;;;;;30.02;15.65;;;;;;;10.55;86.10;98593.66;5135389;27;20175;-27
2023/11/24 10:09:54;;;;;;;28.83;15.10;;;;;;;10.27;87.09;98585.50;5135684;27;20023;-27
2023/11/24 10:12:20;;;;;;;27.75;15.43;;;;;;;10.28;87.50;98579.97;5135610;27;20030;-28
2023/11/24 10:14:46;;;;;;;30.80;15.93;;;;;;;10.23;86.75;98569.22;5135348;27;20526;-28
2023/11/24 10:17:13;;;;;;;27.90;15.02;;;;;;;10.25;87.49;98577.75;5135305;27;20023;-28
2023/11/24 10:19:38;;;;;;;27.33;15.15;;;;;;;10.15;87.50;98565.03;5135013;27;20136;-28
2023/11/24 10:22:04;;;;;;;28.73;15.10;;;;;;;10.07;88.69;98552.09;5135496;27;20097;-32
2023/11/24 10:24:34;;;;;;;30.30;15.63;;;;;;;10.48;85.50;98541.63;5134982;27;20483;-28
2023/11/24 10:27:30;;;;;;;33.33;16.65;;;;;;;10.88;84.29;98535.56;5135258;27;20027;-27
2023/11/24 10:29:56;;;;;;;34.08;17.00;;;;;;;10.96;83.14;98530.66;5113839;27;20039;-28
2023/11/24 10:32:21;;;;;;;30.85;17.05;;;;;;;10.60;85.30;98528.31;5134670;27;20095;-28
2023/11/24 10:34:47;;;;;;;30.48;16.58;;;;;;;10.62;85.55;98515.56;5134877;27;20026;-28
2023/11/24 10:37:17;;;;;;;35.20;18.45;;;;;;;10.78;84.90;98506.88;5134449;27;20094;-29
2023/11/24 10:39:46;;;;;;;31.02;16.60;;;;;;;10.62;85.11;98507.59;5134653;27;20019;-27
2023/11/24 10:42:15;;;;;;;36.17;18.92;;;;;;;10.72;86.05;98505.97;5133340;27;20015;-27
2023/11/24 10:44:43;;;;;;;36.90;19.13;;;;;;;10.73;84.32;98491.59;5134609;27;20110;-28
2023/11/24 10:47:10;;;;;;;34.92;17.48;;;;;;;10.48;86.18;98491.88;5134609;27;20376;-27
2023/11/24 10:49:44;;;;;;;33.70;17.45;;;;;;;10.21;88.08;98486.22;5134525;27;20109;-28
2023/11/24 10:52:27;;;;;;;38.38;18.95;;;;;;;10.37;87.94;98479.41;5134308;27;20031;-27
2023/11/24 10:55:00;;;;;;;35.45;18.25;;;;;;;10.44;88.27;98468.66;5134617;27;20079;-27
2023/11/24 10:57:30;;;;;;;41.20;20.63;;;;;;;10.45;87.06;98449.81;5134336;27;20080;-29
2023/11/24 10:59:57;;;;;;;42.78;21.20;;;;;;;10.81;86.70;98469.13;5134378;27;20100;-27
2023/11/24 11:02:25;;;;;;;42.42;21.23;;;;;;;11.17;85.09;98458.38;5134386;27;20383;-27
2023/11/24 11:05:29;;;;;;;42.50;21.92;;;;;;;10.94;85.21;98458.22;5134338;27;20109;-28
2023/11/24 11:08:17;;;;;;;46.83;22.73;;;;;;;11.02;86.06;98462.34;5082259;27;20073;-27
2023/11/24 11:10:52;;;;;;;46.65;22.15;;;;;;;11.17;84.98;98450.38;5134328;27;20072;-27
2023/11/24 11:13:19;;;;;;;43.55;23.25;;;;;;;10.94;84.73;98438.78;5134104;27;20030;-27
2023/11/24 11:15:50;;;;;;;50.08;25.75;;;;;;;11.11;85.01;98417.53;5134317;27;20035;-28